sensor_id;sensor_type;location;lat;lon;timestamp;P1;durP1;ratioP1;P2;durP2;ratioP2
63005;SDS011;53704;52.532;6.426;2023-12-20T00:02:24;21.17;;;2.72;;
63005;SDS011;53704;52.532;6.426;2023-12-20T00:04:50;22.60;;;2.45;;
63005;SDS011;53704;52.532;6.426;2023-12-20T00:07:15;20.10;;;2.60;;
63005;SDS011;53704;52.532;6.426;2023-12-20T00:09:41;15.13;;;2.10;;
63005;SDS011;53704;52.532;6.426;2023-12-20T00:12:06;12.57;;;2.28;;
63005;SDS011;53704;52.532;6.426;2023-12-20T00:14:32;16.67;;;1.95;;
63005;SDS011;53704;52.532;6.426;2023-12-20T00:16:57;18.30;;;2.25;;
63005;SDS011;53704;52.532;6.426;2023-12-20T00:19:23;15.77;;;2.33;;
63005;SDS011;53704;52.532;6.426;2023-12-20T00:21:49;27.17;;;2.58;;
63005;SDS011;53704;52.532;6.426;2023-12-20T00:24:14;8.38;;;2.22;;
63005;SDS011;53704;52.532;6.426;2023-12-20T00:26:40;23.98;;;3.10;;
63005;SDS011;53704;52.532;6.426;2023-12-20T00:29:05;23.02;;;3.30;;
63005;SDS011;53704;52.532;6.426;2023-12-20T00:31:31;23.10;;;3.53;;
63005;SDS011;53704;52.532;6.426;2023-12-20T00:33:56;17.35;;;3.20;;
63005;SDS011;53704;52.532;6.426;2023-12-20T00:36:22;14.00;;;2.35;;
63005;SDS011;53704;52.532;6.426;2023-12-20T00:38:47;18.00;;;2.72;;
63005;SDS011;53704;52.532;6.426;2023-12-20T00:41:13;26.52;;;2.85;;
63005;SDS011;53704;52.532;6.426;2023-12-20T00:43:38;21.98;;;3.00;;
63005;SDS011;53704;52.532;6.426;2023-12-20T00:46:04;17.02;;;2.45;;
63005;SDS011;53704;52.532;6.426;2023-12-20T00:48:29;21.38;;;2.35;;
63005;SDS011;53704;52.532;6.426;2023-12-20T00:50:58;27.98;;;3.95;;
63005;SDS011;53704;52.532;6.426;2023-12-20T00:53:23;24.42;;;4.60;;
63005;SDS011;53704;52.532;6.426;2023-12-20T00:55:49;18.65;;;3.63;;
63005;SDS011;53704;52.532;6.426;2023-12-20T00:58:15;39.92;;;5.50;;
63005;SDS011;53704;52.532;6.426;2023-12-20T01:00:40;34.17;;;4.80;;
63005;SDS011;53704;52.532;6.426;2023-12-20T01:03:08;25.13;;;5.00;;
63005;SDS011;53704;52.532;6.426;2023-12-20T01:05:33;35.40;;;4.70;;
63005;SDS011;53704;52.532;6.426;2023-12-20T01:07:59;21.80;;;3.70;;
63005;SDS011;53704;52.532;6.426;2023-12-20T01:10:25;30.55;;;3.95;;
63005;SDS011;53704;52.532;6.426;2023-12-20T01:12:53;33.13;;;3.85;;
63005;SDS011;53704;52.532;6.426;2023-12-20T01:15:18;22.60;;;3.45;;
63005;SDS011;53704;52.532;6.426;2023-12-20T01:17:44;28.55;;;5.40;;
63005;SDS011;53704;52.532;6.426;2023-12-20T01:20:09;39.33;;;4.97;;
63005;SDS011;53704;52.532;6.426;2023-12-20T01:22:35;27.92;;;3.50;;
63005;SDS011;53704;52.532;6.426;2023-12-20T01:25:01;26.95;;;3.65;;
63005;SDS011;53704;52.532;6.426;2023-12-20T01:27:27;19.65;;;2.78;;
63005;SDS011;53704;52.532;6.426;2023-12-20T01:29:53;25.67;;;2.65;;
63005;SDS011;53704;52.532;6.426;2023-12-20T01:32:18;27.27;;;4.22;;
63005;SDS011;53704;52.532;6.426;2023-12-20T01:34:43;29.67;;;3.85;;
63005;SDS011;53704;52.532;6.426;2023-12-20T01:37:09;26.35;;;3.00;;
63005;SDS011;53704;52.532;6.426;2023-12-20T01:39:34;29.00;;;3.53;;
63005;SDS011;53704;52.532;6.426;2023-12-20T01:42:00;27.10;;;3.15;;
63005;SDS011;53704;52.532;6.426;2023-12-20T01:44:25;20.98;;;3.28;;
63005;SDS011;53704;52.532;6.426;2023-12-20T01:46:51;25.63;;;2.70;;
63005;SDS011;53704;52.532;6.426;2023-12-20T01:49:17;20.67;;;2.50;;
63005;SDS011;53704;52.532;6.426;2023-12-20T01:51:42;26.88;;;3.72;;
63005;SDS011;53704;52.532;6.426;2023-12-20T01:54:08;27.10;;;4.47;;
63005;SDS011;53704;52.532;6.426;2023-12-20T01:56:34;29.70;;;4.47;;
63005;SDS011;53704;52.532;6.426;2023-12-20T01:59:00;24.20;;;3.78;;
63005;SDS011;53704;52.532;6.426;2023-12-20T02:01:27;44.35;;;4.68;;
63005;SDS011;53704;52.532;6.426;2023-12-20T02:03:53;21.42;;;2.90;;
63005;SDS011;53704;52.532;6.426;2023-12-20T02:06:19;40.10;;;4.43;;
63005;SDS011;53704;52.532;6.426;2023-12-20T02:08:48;21.95;;;3.67;;
63005;SDS011;53704;52.532;6.426;2023-12-20T02:11:15;42.47;;;3.78;;
63005;SDS011;53704;52.532;6.426;2023-12-20T02:13:40;26.92;;;3.17;;
63005;SDS011;53704;52.532;6.426;2023-12-20T02:16:06;22.67;;;3.55;;
63005;SDS011;53704;52.532;6.426;2023-12-20T02:18:32;29.80;;;4.13;;
63005;SDS011;53704;52.532;6.426;2023-12-20T02:20:58;18.38;;;3.50;;
63005;SDS011;53704;52.532;6.426;2023-12-20T02:23:23;28.65;;;4.38;;
63005;SDS011;53704;52.532;6.426;2023-12-20T02:25:49;28.73;;;4.25;;
63005;SDS011;53704;52.532;6.426;2023-12-20T02:28:14;25.27;;;3.33;;
63005;SDS011;53704;52.532;6.426;2023-12-20T02:30:41;14.27;;;2.22;;
63005;SDS011;53704;52.532;6.426;2023-12-20T02:33:07;31.73;;;4.78;;
63005;SDS011;53704;52.532;6.426;2023-12-20T02:35:35;34.65;;;3.67;;
63005;SDS011;53704;52.532;6.426;2023-12-20T02:38:01;30.73;;;4.05;;
63005;SDS011;53704;52.532;6.426;2023-12-20T02:40:26;21.52;;;3.28;;
63005;SDS011;53704;52.532;6.426;2023-12-20T02:42:52;28.38;;;3.55;;
63005;SDS011;53704;52.532;6.426;2023-12-20T02:45:17;29.35;;;3.15;;
63005;SDS011;53704;52.532;6.426;2023-12-20T02:47:42;24.85;;;2.90;;
63005;SDS011;53704;52.532;6.426;2023-12-20T02:50:08;25.33;;;3.20;;
63005;SDS011;53704;52.532;6.426;2023-12-20T02:52:33;33.20;;;3.63;;
63005;SDS011;53704;52.532;6.426;2023-12-20T02:54:59;33.35;;;4.18;;
63005;SDS011;53704;52.532;6.426;2023-12-20T02:57:24;45.08;;;5.90;;
63005;SDS011;53704;52.532;6.426;2023-12-20T02:59:49;28.65;;;3.80;;
63005;SDS011;53704;52.532;6.426;2023-12-20T03:02:15;50.55;;;5.22;;
63005;SDS011;53704;52.532;6.426;2023-12-20T03:04:40;27.95;;;3.35;;
63005;SDS011;53704;52.532;6.426;2023-12-20T03:07:06;27.58;;;3.85;;
63005;SDS011;53704;52.532;6.426;2023-12-20T03:09:31;38.00;;;4.47;;
63005;SDS011;53704;52.532;6.426;2023-12-20T03:11:56;27.48;;;3.70;;
63005;SDS011;53704;52.532;6.426;2023-12-20T03:14:22;33.30;;;4.53;;
63005;SDS011;53704;52.532;6.426;2023-12-20T03:16:50;36.15;;;4.05;;
63005;SDS011;53704;52.532;6.426;2023-12-20T03:19:17;31.15;;;2.83;;
63005;SDS011;53704;52.532;6.426;2023-12-20T03:21:43;31.10;;;3.33;;
63005;SDS011;53704;52.532;6.426;2023-12-20T03:24:09;34.78;;;4.80;;
63005;SDS011;53704;52.532;6.426;2023-12-20T03:26:34;32.67;;;4.03;;
63005;SDS011;53704;52.532;6.426;2023-12-20T03:29:00;38.13;;;4.18;;
63005;SDS011;53704;52.532;6.426;2023-12-20T03:31:26;36.00;;;3.80;;
63005;SDS011;53704;52.532;6.426;2023-12-20T03:33:51;39.55;;;4.57;;
63005;SDS011;53704;52.532;6.426;2023-12-20T03:36:18;37.22;;;5.68;;
63005;SDS011;53704;52.532;6.426;2023-12-20T03:38:45;22.83;;;3.15;;
63005;SDS011;53704;52.532;6.426;2023-12-20T03:41:10;33.30;;;3.30;;
63005;SDS011;53704;52.532;6.426;2023-12-20T03:43:36;29.80;;;3.55;;
63005;SDS011;53704;52.532;6.426;2023-12-20T03:46:02;31.75;;;4.68;;
63005;SDS011;53704;52.532;6.426;2023-12-20T03:48:28;27.33;;;3.70;;
63005;SDS011;53704;52.532;6.426;2023-12-20T03:50:54;22.23;;;4.15;;
63005;SDS011;53704;52.532;6.426;2023-12-20T03:53:20;22.73;;;3.88;;
63005;SDS011;53704;52.532;6.426;2023-12-20T03:55:45;27.30;;;3.53;;
63005;SDS011;53704;52.532;6.426;2023-12-20T03:58:11;20.73;;;2.85;;
63005;SDS011;53704;52.532;6.426;2023-12-20T04:00:36;33.83;;;4.03;;
63005;SDS011;53704;52.532;6.426;2023-12-20T04:03:02;33.88;;;4.28;;
63005;SDS011;53704;52.532;6.426;2023-12-20T04:05:30;42.53;;;3.95;;
63005;SDS011;53704;52.532;6.426;2023-12-20T04:07:56;32.70;;;4.32;;
63005;SDS011;53704;52.532;6.426;2023-12-20T04:10:21;36.08;;;3.92;;
63005;SDS011;53704;52.532;6.426;2023-12-20T04:12:46;23.70;;;3.88;;
63005;SDS011;53704;52.532;6.426;2023-12-20T04:15:12;27.45;;;3.90;;
63005;SDS011;53704;52.532;6.426;2023-12-20T04:17:37;27.85;;;4.47;;
63005;SDS011;53704;52.532;6.426;2023-12-20T04:20:03;33.83;;;3.97;;
63005;SDS011;53704;52.532;6.426;2023-12-20T04:22:29;32.17;;;4.57;;
63005;SDS011;53704;52.532;6.426;2023-12-20T04:24:54;42.17;;;5.25;;
63005;SDS011;53704;52.532;6.426;2023-12-20T04:27:20;26.58;;;4.05;;
63005;SDS011;53704;52.532;6.426;2023-12-20T04:29:46;28.75;;;3.65;;
63005;SDS011;53704;52.532;6.426;2023-12-20T04:32:11;26.90;;;3.78;;
63005;SDS011;53704;52.532;6.426;2023-12-20T04:34:37;31.80;;;4.82;;
63005;SDS011;53704;52.532;6.426;2023-12-20T04:37:02;27.65;;;3.60;;
63005;SDS011;53704;52.532;6.426;2023-12-20T04:39:28;40.38;;;5.18;;
63005;SDS011;53704;52.532;6.426;2023-12-20T04:41:56;43.15;;;5.10;;
63005;SDS011;53704;52.532;6.426;2023-12-20T04:44:21;29.83;;;3.85;;
63005;SDS011;53704;52.532;6.426;2023-12-20T04:46:49;33.25;;;4.30;;
63005;SDS011;53704;52.532;6.426;2023-12-20T04:49:14;47.50;;;4.47;;
63005;SDS011;53704;52.532;6.426;2023-12-20T04:51:41;27.70;;;4.55;;
63005;SDS011;53704;52.532;6.426;2023-12-20T04:54:06;34.80;;;4.75;;
63005;SDS011;53704;52.532;6.426;2023-12-20T04:56:32;26.30;;;3.53;;
63005;SDS011;53704;52.532;6.426;2023-12-20T04:58:58;49.08;;;4.40;;
63005;SDS011;53704;52.532;6.426;2023-12-20T05:01:23;41.75;;;4.60;;
63005;SDS011;53704;52.532;6.426;2023-12-20T05:03:49;20.85;;;3.97;;
63005;SDS011;53704;52.532;6.426;2023-12-20T05:06:14;42.17;;;4.85;;
63005;SDS011;53704;52.532;6.426;2023-12-20T05:08:40;30.85;;;4.32;;
63005;SDS011;53704;52.532;6.426;2023-12-20T05:11:05;42.72;;;5.35;;
63005;SDS011;53704;52.532;6.426;2023-12-20T05:13:31;34.55;;;4.63;;
63005;SDS011;53704;52.532;6.426;2023-12-20T05:15:57;38.83;;;5.32;;
63005;SDS011;53704;52.532;6.426;2023-12-20T05:18:22;36.17;;;5.00;;
63005;SDS011;53704;52.532;6.426;2023-12-20T05:20:48;32.38;;;4.68;;
63005;SDS011;53704;52.532;6.426;2023-12-20T05:23:15;35.40;;;4.82;;
63005;SDS011;53704;52.532;6.426;2023-12-20T05:25:40;31.45;;;5.07;;
63005;SDS011;53704;52.532;6.426;2023-12-20T05:28:06;40.50;;;4.80;;
63005;SDS011;53704;52.532;6.426;2023-12-20T05:30:31;44.55;;;4.75;;
63005;SDS011;53704;52.532;6.426;2023-12-20T05:32:57;31.17;;;4.70;;
63005;SDS011;53704;52.532;6.426;2023-12-20T05:35:22;45.30;;;6.03;;
63005;SDS011;53704;52.532;6.426;2023-12-20T05:37:48;38.15;;;4.63;;
63005;SDS011;53704;52.532;6.426;2023-12-20T05:40:14;38.45;;;5.28;;
63005;SDS011;53704;52.532;6.426;2023-12-20T05:42:39;30.63;;;5.03;;
63005;SDS011;53704;52.532;6.426;2023-12-20T05:45:05;31.88;;;5.85;;
63005;SDS011;53704;52.532;6.426;2023-12-20T05:47:31;35.08;;;4.03;;
63005;SDS011;53704;52.532;6.426;2023-12-20T05:49:57;40.00;;;4.43;;
63005;SDS011;53704;52.532;6.426;2023-12-20T05:52:22;40.20;;;4.75;;
63005;SDS011;53704;52.532;6.426;2023-12-20T05:54:48;35.63;;;4.43;;
63005;SDS011;53704;52.532;6.426;2023-12-20T05:57:13;26.95;;;4.30;;
63005;SDS011;53704;52.532;6.426;2023-12-20T05:59:39;37.45;;;5.20;;
63005;SDS011;53704;52.532;6.426;2023-12-20T06:02:04;24.85;;;4.68;;
63005;SDS011;53704;52.532;6.426;2023-12-20T06:04:30;29.13;;;4.20;;
63005;SDS011;53704;52.532;6.426;2023-12-20T06:06:56;38.65;;;4.65;;
63005;SDS011;53704;52.532;6.426;2023-12-20T06:09:21;38.30;;;5.30;;
63005;SDS011;53704;52.532;6.426;2023-12-20T06:11:47;35.30;;;4.03;;
63005;SDS011;53704;52.532;6.426;2023-12-20T06:14:12;29.33;;;4.97;;
63005;SDS011;53704;52.532;6.426;2023-12-20T06:16:38;33.72;;;4.05;;
63005;SDS011;53704;52.532;6.426;2023-12-20T06:19:03;29.08;;;4.78;;
63005;SDS011;53704;52.532;6.426;2023-12-20T06:21:29;34.00;;;4.43;;
63005;SDS011;53704;52.532;6.426;2023-12-20T06:23:54;30.88;;;4.55;;
63005;SDS011;53704;52.532;6.426;2023-12-20T06:26:20;30.33;;;5.97;;
63005;SDS011;53704;52.532;6.426;2023-12-20T06:28:45;25.50;;;4.07;;
63005;SDS011;53704;52.532;6.426;2023-12-20T06:31:11;31.98;;;4.38;;
63005;SDS011;53704;52.532;6.426;2023-12-20T06:33:36;33.05;;;4.15;;
63005;SDS011;53704;52.532;6.426;2023-12-20T06:36:02;30.85;;;4.40;;
63005;SDS011;53704;52.532;6.426;2023-12-20T06:38:28;31.10;;;3.92;;
63005;SDS011;53704;52.532;6.426;2023-12-20T06:40:53;24.52;;;4.82;;
63005;SDS011;53704;52.532;6.426;2023-12-20T06:43:19;31.40;;;5.20;;
63005;SDS011;53704;52.532;6.426;2023-12-20T06:45:44;24.08;;;3.58;;
63005;SDS011;53704;52.532;6.426;2023-12-20T06:48:09;23.55;;;4.43;;
63005;SDS011;53704;52.532;6.426;2023-12-20T06:50:37;32.95;;;5.28;;
63005;SDS011;53704;52.532;6.426;2023-12-20T06:53:06;24.23;;;3.47;;
63005;SDS011;53704;52.532;6.426;2023-12-20T06:55:32;22.08;;;3.80;;
63005;SDS011;53704;52.532;6.426;2023-12-20T06:58:02;18.40;;;3.42;;
63005;SDS011;53704;52.532;6.426;2023-12-20T07:00:28;38.53;;;5.18;;
63005;SDS011;53704;52.532;6.426;2023-12-20T07:02:54;25.83;;;3.35;;
63005;SDS011;53704;52.532;6.426;2023-12-20T07:05:20;30.38;;;4.10;;
63005;SDS011;53704;52.532;6.426;2023-12-20T07:07:46;26.73;;;4.32;;
63005;SDS011;53704;52.532;6.426;2023-12-20T07:10:12;42.72;;;5.10;;
63005;SDS011;53704;52.532;6.426;2023-12-20T07:12:38;25.23;;;5.65;;
63005;SDS011;53704;52.532;6.426;2023-12-20T07:15:03;29.85;;;4.68;;
63005;SDS011;53704;52.532;6.426;2023-12-20T07:17:30;22.35;;;3.72;;
63005;SDS011;53704;52.532;6.426;2023-12-20T07:19:58;38.70;;;5.00;;
63005;SDS011;53704;52.532;6.426;2023-12-20T07:22:23;30.95;;;5.07;;
63005;SDS011;53704;52.532;6.426;2023-12-20T07:24:49;32.25;;;4.28;;
63005;SDS011;53704;52.532;6.426;2023-12-20T07:27:14;31.83;;;4.63;;
63005;SDS011;53704;52.532;6.426;2023-12-20T07:29:40;27.27;;;4.65;;
63005;SDS011;53704;52.532;6.426;2023-12-20T07:32:06;34.53;;;4.90;;
63005;SDS011;53704;52.532;6.426;2023-12-20T07:34:31;36.35;;;4.85;;
63005;SDS011;53704;52.532;6.426;2023-12-20T07:36:57;31.17;;;4.22;;
63005;SDS011;53704;52.532;6.426;2023-12-20T07:39:22;30.25;;;4.20;;
63005;SDS011;53704;52.532;6.426;2023-12-20T07:41:48;27.65;;;4.55;;
63005;SDS011;53704;52.532;6.426;2023-12-20T07:44:13;28.77;;;4.18;;
63005;SDS011;53704;52.532;6.426;2023-12-20T07:46:40;35.85;;;4.43;;
63005;SDS011;53704;52.532;6.426;2023-12-20T07:49:06;40.00;;;5.10;;
63005;SDS011;53704;52.532;6.426;2023-12-20T07:51:33;21.27;;;4.75;;
63005;SDS011;53704;52.532;6.426;2023-12-20T07:53:59;28.08;;;5.00;;
63005;SDS011;53704;52.532;6.426;2023-12-20T07:56:24;33.28;;;4.78;;
63005;SDS011;53704;52.532;6.426;2023-12-20T07:58:50;32.72;;;4.25;;
63005;SDS011;53704;52.532;6.426;2023-12-20T08:01:16;39.63;;;5.60;;
63005;SDS011;53704;52.532;6.426;2023-12-20T08:03:43;29.65;;;5.13;;
63005;SDS011;53704;52.532;6.426;2023-12-20T08:06:09;27.50;;;4.40;;
63005;SDS011;53704;52.532;6.426;2023-12-20T08:08:35;36.42;;;4.07;;
63005;SDS011;53704;52.532;6.426;2023-12-20T08:11:00;28.23;;;4.32;;
63005;SDS011;53704;52.532;6.426;2023-12-20T08:13:26;38.20;;;4.25;;
63005;SDS011;53704;52.532;6.426;2023-12-20T08:15:52;38.03;;;5.88;;
63005;SDS011;53704;52.532;6.426;2023-12-20T08:18:18;30.90;;;4.85;;
63005;SDS011;53704;52.532;6.426;2023-12-20T08:20:44;32.03;;;5.75;;
63005;SDS011;53704;52.532;6.426;2023-12-20T08:23:09;33.55;;;5.20;;
63005;SDS011;53704;52.532;6.426;2023-12-20T08:25:35;29.60;;;4.90;;
63005;SDS011;53704;52.532;6.426;2023-12-20T08:28:01;31.98;;;4.43;;
63005;SDS011;53704;52.532;6.426;2023-12-20T08:30:30;32.28;;;4.53;;
63005;SDS011;53704;52.532;6.426;2023-12-20T08:32:56;34.30;;;4.82;;
63005;SDS011;53704;52.532;6.426;2023-12-20T08:35:25;40.03;;;4.65;;
63005;SDS011;53704;52.532;6.426;2023-12-20T08:37:50;40.30;;;6.38;;
63005;SDS011;53704;52.532;6.426;2023-12-20T08:40:16;38.05;;;4.82;;
63005;SDS011;53704;52.532;6.426;2023-12-20T08:42:41;35.05;;;4.88;;
63005;SDS011;53704;52.532;6.426;2023-12-20T08:45:07;28.27;;;5.18;;
63005;SDS011;53704;52.532;6.426;2023-12-20T08:47:33;37.42;;;5.55;;
63005;SDS011;53704;52.532;6.426;2023-12-20T08:49:58;27.23;;;4.90;;
63005;SDS011;53704;52.532;6.426;2023-12-20T08:52:25;25.40;;;4.43;;
63005;SDS011;53704;52.532;6.426;2023-12-20T08:54:52;35.50;;;4.85;;
63005;SDS011;53704;52.532;6.426;2023-12-20T08:57:21;29.52;;;4.40;;
63005;SDS011;53704;52.532;6.426;2023-12-20T08:59:48;29.02;;;4.38;;
63005;SDS011;53704;52.532;6.426;2023-12-20T09:02:15;35.45;;;5.07;;
63005;SDS011;53704;52.532;6.426;2023-12-20T09:04:41;37.28;;;5.22;;
63005;SDS011;53704;52.532;6.426;2023-12-20T09:07:07;31.15;;;4.65;;
63005;SDS011;53704;52.532;6.426;2023-12-20T09:09:45;33.00;;;5.63;;
63005;SDS011;53704;52.532;6.426;2023-12-20T09:12:10;36.75;;;5.00;;
63005;SDS011;53704;52.532;6.426;2023-12-20T09:14:36;26.98;;;4.95;;
63005;SDS011;53704;52.532;6.426;2023-12-20T09:17:01;23.85;;;4.88;;
63005;SDS011;53704;52.532;6.426;2023-12-20T09:19:34;30.27;;;4.82;;
63005;SDS011;53704;52.532;6.426;2023-12-20T09:21:59;36.75;;;5.30;;
63005;SDS011;53704;52.532;6.426;2023-12-20T09:24:25;41.42;;;6.18;;
63005;SDS011;53704;52.532;6.426;2023-12-20T09:26:50;24.88;;;4.88;;
63005;SDS011;53704;52.532;6.426;2023-12-20T09:29:15;29.45;;;5.63;;
63005;SDS011;53704;52.532;6.426;2023-12-20T09:31:42;33.03;;;4.85;;
63005;SDS011;53704;52.532;6.426;2023-12-20T09:34:09;39.13;;;5.38;;
63005;SDS011;53704;52.532;6.426;2023-12-20T09:36:34;31.40;;;4.80;;
63005;SDS011;53704;52.532;6.426;2023-12-20T09:39:01;32.00;;;4.07;;
63005;SDS011;53704;52.532;6.426;2023-12-20T09:41:28;32.05;;;4.75;;
63005;SDS011;53704;52.532;6.426;2023-12-20T09:44:00;28.73;;;3.72;;
63005;SDS011;53704;52.532;6.426;2023-12-20T09:46:27;29.00;;;5.03;;
63005;SDS011;53704;52.532;6.426;2023-12-20T09:48:59;22.48;;;4.38;;
63005;SDS011;53704;52.532;6.426;2023-12-20T09:51:26;22.98;;;3.60;;
63005;SDS011;53704;52.532;6.426;2023-12-20T09:53:54;27.98;;;4.63;;
63005;SDS011;53704;52.532;6.426;2023-12-20T09:56:22;29.58;;;4.80;;
63005;SDS011;53704;52.532;6.426;2023-12-20T09:58:48;30.95;;;5.03;;
63005;SDS011;53704;52.532;6.426;2023-12-20T10:01:14;37.28;;;4.97;;
63005;SDS011;53704;52.532;6.426;2023-12-20T10:03:41;28.08;;;3.95;;
63005;SDS011;53704;52.532;6.426;2023-12-20T10:06:07;25.02;;;4.63;;
63005;SDS011;53704;52.532;6.426;2023-12-20T10:08:32;35.00;;;4.60;;
63005;SDS011;53704;52.532;6.426;2023-12-20T10:10:58;28.65;;;3.88;;
63005;SDS011;53704;52.532;6.426;2023-12-20T10:13:27;17.25;;;3.67;;
63005;SDS011;53704;52.532;6.426;2023-12-20T10:15:54;30.10;;;4.53;;
63005;SDS011;53704;52.532;6.426;2023-12-20T10:18:20;27.67;;;4.10;;
63005;SDS011;53704;52.532;6.426;2023-12-20T10:20:46;27.17;;;4.72;;
63005;SDS011;53704;52.532;6.426;2023-12-20T10:23:13;17.73;;;3.58;;
63005;SDS011;53704;52.532;6.426;2023-12-20T10:25:40;33.17;;;3.78;;
63005;SDS011;53704;52.532;6.426;2023-12-20T10:30:35;23.20;;;4.30;;
63005;SDS011;53704;52.532;6.426;2023-12-20T10:33:01;33.05;;;4.43;;
63005;SDS011;53704;52.532;6.426;2023-12-20T10:35:26;27.02;;;4.35;;
63005;SDS011;53704;52.532;6.426;2023-12-20T10:37:52;29.58;;;4.05;;
63005;SDS011;53704;52.532;6.426;2023-12-20T10:40:24;28.08;;;4.65;;
63005;SDS011;53704;52.532;6.426;2023-12-20T10:42:54;12.80;;;3.17;;
63005;SDS011;53704;52.532;6.426;2023-12-20T10:45:22;10.40;;;2.50;;
63005;SDS011;53704;52.532;6.426;2023-12-20T10:47:50;15.40;;;2.63;;
63005;SDS011;53704;52.532;6.426;2023-12-20T10:50:18;8.80;;;2.25;;
63005;SDS011;53704;52.532;6.426;2023-12-20T10:52:45;18.38;;;2.58;;
63005;SDS011;53704;52.532;6.426;2023-12-20T10:55:12;17.42;;;3.10;;
63005;SDS011;53704;52.532;6.426;2023-12-20T10:57:38;12.38;;;2.50;;
63005;SDS011;53704;52.532;6.426;2023-12-20T11:00:05;10.75;;;2.15;;
63005;SDS011;53704;52.532;6.426;2023-12-20T11:02:34;10.50;;;1.90;;
63005;SDS011;53704;52.532;6.426;2023-12-20T11:07:49;13.85;;;2.92;;
63005;SDS011;53704;52.532;6.426;2023-12-20T11:10:26;10.63;;;2.22;;
63005;SDS011;53704;52.532;6.426;2023-12-20T11:15:42;15.40;;;1.98;;
63005;SDS011;53704;52.532;6.426;2023-12-20T11:18:09;13.48;;;2.47;;
63005;SDS011;53704;52.532;6.426;2023-12-20T11:20:35;18.80;;;2.70;;
63005;SDS011;53704;52.532;6.426;2023-12-20T11:23:04;11.43;;;2.03;;
63005;SDS011;53704;52.532;6.426;2023-12-20T11:25:44;11.18;;;2.10;;
63005;SDS011;53704;52.532;6.426;2023-12-20T11:28:12;16.08;;;2.70;;
63005;SDS011;53704;52.532;6.426;2023-12-20T11:30:56;12.70;;;2.60;;
63005;SDS011;53704;52.532;6.426;2023-12-20T11:33:35;17.42;;;2.95;;
63005;SDS011;53704;52.532;6.426;2023-12-20T11:36:02;9.93;;;1.98;;
63005;SDS011;53704;52.532;6.426;2023-12-20T11:38:37;13.32;;;2.33;;
63005;SDS011;53704;52.532;6.426;2023-12-20T11:41:04;7.72;;;2.13;;
63005;SDS011;53704;52.532;6.426;2023-12-20T11:43:37;22.45;;;5.00;;
63005;SDS011;53704;52.532;6.426;2023-12-20T11:46:07;21.13;;;3.00;;
63005;SDS011;53704;52.532;6.426;2023-12-20T11:48:34;13.05;;;1.30;;
63005;SDS011;53704;52.532;6.426;2023-12-20T11:51:02;11.38;;;2.30;;
63005;SDS011;53704;52.532;6.426;2023-12-20T11:53:34;9.75;;;1.63;;
63005;SDS011;53704;52.532;6.426;2023-12-20T11:55:59;8.27;;;1.48;;
63005;SDS011;53704;52.532;6.426;2023-12-20T11:58:25;8.52;;;1.80;;
63005;SDS011;53704;52.532;6.426;2023-12-20T12:00:51;6.13;;;1.60;;
63005;SDS011;53704;52.532;6.426;2023-12-20T12:03:16;9.75;;;1.40;;
63005;SDS011;53704;52.532;6.426;2023-12-20T12:05:42;8.90;;;1.58;;
63005;SDS011;53704;52.532;6.426;2023-12-20T12:08:07;9.95;;;1.40;;
63005;SDS011;53704;52.532;6.426;2023-12-20T12:10:33;9.52;;;2.05;;
63005;SDS011;53704;52.532;6.426;2023-12-20T12:12:59;9.27;;;1.90;;
63005;SDS011;53704;52.532;6.426;2023-12-20T12:15:25;12.60;;;1.88;;
63005;SDS011;53704;52.532;6.426;2023-12-20T12:17:54;12.15;;;3.20;;
63005;SDS011;53704;52.532;6.426;2023-12-20T12:20:24;16.80;;;8.23;;
63005;SDS011;53704;52.532;6.426;2023-12-20T12:22:57;10.18;;;6.00;;
63005;SDS011;53704;52.532;6.426;2023-12-20T12:25:26;12.05;;;6.75;;
63005;SDS011;53704;52.532;6.426;2023-12-20T12:27:53;12.38;;;2.38;;
63005;SDS011;53704;52.532;6.426;2023-12-20T12:30:19;7.88;;;1.35;;
63005;SDS011;53704;52.532;6.426;2023-12-20T12:32:44;10.73;;;1.58;;
63005;SDS011;53704;52.532;6.426;2023-12-20T12:35:10;23.30;;;2.05;;
63005;SDS011;53704;52.532;6.426;2023-12-20T12:37:37;12.82;;;2.40;;
63005;SDS011;53704;52.532;6.426;2023-12-20T12:40:09;22.80;;;2.33;;
63005;SDS011;53704;52.532;6.426;2023-12-20T12:42:36;13.90;;;2.35;;
63005;SDS011;53704;52.532;6.426;2023-12-20T12:45:03;6.38;;;1.83;;
63005;SDS011;53704;52.532;6.426;2023-12-20T12:47:30;8.00;;;1.40;;
63005;SDS011;53704;52.532;6.426;2023-12-20T12:49:56;13.73;;;2.85;;
63005;SDS011;53704;52.532;6.426;2023-12-20T12:52:21;20.10;;;1.70;;
63005;SDS011;53704;52.532;6.426;2023-12-20T12:54:47;10.02;;;2.00;;
63005;SDS011;53704;52.532;6.426;2023-12-20T12:57:13;9.05;;;1.67;;
63005;SDS011;53704;52.532;6.426;2023-12-20T12:59:40;16.33;;;1.92;;
63005;SDS011;53704;52.532;6.426;2023-12-20T13:02:06;4.18;;;1.35;;
63005;SDS011;53704;52.532;6.426;2023-12-20T13:04:31;16.20;;;2.53;;
63005;SDS011;53704;52.532;6.426;2023-12-20T13:06:57;12.27;;;2.65;;
63005;SDS011;53704;52.532;6.426;2023-12-20T13:09:23;16.70;;;3.17;;
63005;SDS011;53704;52.532;6.426;2023-12-20T13:11:50;15.25;;;3.13;;
63005;SDS011;53704;52.532;6.426;2023-12-20T13:14:16;13.35;;;2.45;;
63005;SDS011;53704;52.532;6.426;2023-12-20T13:16:41;11.70;;;2.38;;
63005;SDS011;53704;52.532;6.426;2023-12-20T13:19:07;18.90;;;4.13;;
63005;SDS011;53704;52.532;6.426;2023-12-20T13:21:33;21.05;;;5.20;;
63005;SDS011;53704;52.532;6.426;2023-12-20T13:23:58;19.63;;;2.95;;
63005;SDS011;53704;52.532;6.426;2023-12-20T13:26:24;19.73;;;3.53;;
63005;SDS011;53704;52.532;6.426;2023-12-20T13:28:50;15.05;;;2.33;;
63005;SDS011;53704;52.532;6.426;2023-12-20T13:31:15;22.05;;;3.30;;
63005;SDS011;53704;52.532;6.426;2023-12-20T13:33:41;11.50;;;2.20;;
63005;SDS011;53704;52.532;6.426;2023-12-20T13:36:06;10.10;;;3.05;;
63005;SDS011;53704;52.532;6.426;2023-12-20T13:38:32;16.42;;;2.60;;
63005;SDS011;53704;52.532;6.426;2023-12-20T13:40:58;19.80;;;3.58;;
63005;SDS011;53704;52.532;6.426;2023-12-20T13:43:24;20.92;;;3.30;;
63005;SDS011;53704;52.532;6.426;2023-12-20T13:45:50;11.90;;;2.42;;
63005;SDS011;53704;52.532;6.426;2023-12-20T13:48:16;20.38;;;4.03;;
63005;SDS011;53704;52.532;6.426;2023-12-20T13:50:42;36.78;;;6.03;;
63005;SDS011;53704;52.532;6.426;2023-12-20T13:53:07;17.25;;;4.80;;
63005;SDS011;53704;52.532;6.426;2023-12-20T13:55:35;22.30;;;4.82;;
63005;SDS011;53704;52.532;6.426;2023-12-20T13:58:00;22.85;;;4.35;;
63005;SDS011;53704;52.532;6.426;2023-12-20T14:00:26;19.70;;;3.88;;
63005;SDS011;53704;52.532;6.426;2023-12-20T14:02:51;20.08;;;4.00;;
63005;SDS011;53704;52.532;6.426;2023-12-20T14:05:17;38.45;;;4.75;;
63005;SDS011;53704;52.532;6.426;2023-12-20T14:07:43;21.58;;;3.22;;
63005;SDS011;53704;52.532;6.426;2023-12-20T14:10:10;20.55;;;2.60;;
63005;SDS011;53704;52.532;6.426;2023-12-20T14:12:38;34.50;;;3.75;;
63005;SDS011;53704;52.532;6.426;2023-12-20T14:15:03;24.67;;;3.88;;
63005;SDS011;53704;52.532;6.426;2023-12-20T14:17:34;20.98;;;4.15;;
63005;SDS011;53704;52.532;6.426;2023-12-20T14:19:59;29.77;;;4.50;;
63005;SDS011;53704;52.532;6.426;2023-12-20T14:22:25;24.88;;;4.45;;
63005;SDS011;53704;52.532;6.426;2023-12-20T14:24:51;25.70;;;4.35;;
63005;SDS011;53704;52.532;6.426;2023-12-20T14:27:16;23.98;;;4.05;;
63005;SDS011;53704;52.532;6.426;2023-12-20T14:29:42;29.35;;;3.40;;
63005;SDS011;53704;52.532;6.426;2023-12-20T14:32:07;29.98;;;4.00;;
63005;SDS011;53704;52.532;6.426;2023-12-20T14:34:32;31.45;;;4.07;;
63005;SDS011;53704;52.532;6.426;2023-12-20T14:36:58;24.15;;;3.60;;
63005;SDS011;53704;52.532;6.426;2023-12-20T14:39:23;34.35;;;4.55;;